LKBE weather

Benešov Airport
Benešov, Central Bohemian Region, Czechia

Public forecast

Using degrees Celsius for public forecast. Weather courtesy of forecast.io.

METAR (pilot weather report)

Closest report is Kbely Air Base, 23.2 nm (42.9 km) N. Retrieved 2019/05/24 19:00 UTC (32 minutes ago):

LKKB 241900Z 00000KT CAVOK 17/10 Q1013 NOSIG

TAF (pilot weather forecast)

Closest forecast is Kbely Air Base, 23.2 nm (42.9 km) N. Retrieved 2019/05/24 18:00 UTC (2 hours ago):

TAF COR LKKB 241700Z 2418/2518 VRB02KT CAVOK BECMG 2509/2511 34006KT SCT040 TEMPO 2512/2518 34016KT SHRA SCT028TCU BKN040 BECMG 2516/2518 VRB02KT CAVOK